Time;durP1;ratioP1;P1;durP2;ratioP2;P2;SDS_P1;SDS_P2;PMS_P1;PMS_P2;Temp;Humidity;BMP_temperature;BMP_pressure;BME280_temperature;BME280_humidity;BME280_pressure;Samples;Min_cycle;Max_cycle;Signal;HPM_P1;HPM_P2
2022/04/08 00:01:22;;;;;;;8.45;4.63;;;;;;;20.03;35.48;97737.34;5150622;27;20062;-67
2022/04/08 00:03:47;;;;;;;8.57;4.65;;;;;;;20.05;35.35;97735.25;5139242;27;20039;-68
2022/04/08 00:06:13;;;;;;;4.88;4.10;;;;;;;20.07;35.42;97721.59;5136200;27;20095;-65
2022/04/08 00:08:38;;;;;;;7.30;4.97;;;;;;;20.09;35.19;97730.25;5136545;27;20532;-66
2022/04/08 00:11:04;;;;;;;9.35;4.55;;;;;;;20.11;35.29;97739.72;5136335;27;20035;-66
2022/04/08 00:13:29;;;;;;;7.45;4.38;;;;;;;20.13;35.15;97734.94;5135940;27;20432;-66
2022/04/08 00:15:55;;;;;;;5.18;4.63;;;;;;;20.15;34.79;97726.66;5135756;27;20034;-67
2022/04/08 00:18:20;;;;;;;4.95;3.88;;;;;;;20.18;34.95;97726.19;5135872;27;20035;-64
2022/04/08 00:20:46;;;;;;;5.32;4.47;;;;;;;20.20;34.83;97729.47;5136448;27;20486;-68
2022/04/08 00:23:12;;;;;;;5.18;3.83;;;;;;;20.22;34.94;97731.94;5135739;27;20019;-67
2022/04/08 00:25:38;;;;;;;6.72;4.47;;;;;;;20.22;34.79;97715.84;5140776;27;20078;-66
2022/04/08 00:28:04;;;;;;;7.68;4.70;;;;;;;20.22;34.73;97731.94;5157286;27;20030;-66
2022/04/08 00:30:30;;;;;;;8.23;4.35;;;;;;;20.24;34.61;97724.47;5144414;27;20027;-67
2022/04/08 00:32:58;;;;;;;5.70;4.07;;;;;;;20.30;34.46;97710.13;5135972;27;20375;-64
2022/04/08 00:35:24;;;;;;;7.80;4.68;;;;;;;20.41;34.29;97720.06;5135785;27;20039;-66
2022/04/08 00:37:50;;;;;;;4.85;3.63;;;;;;;20.50;34.29;97719.78;5135944;27;20615;-67
2022/04/08 00:40:16;;;;;;;6.32;3.88;;;;;;;20.55;34.18;97715.34;5133708;27;20034;-65
2022/04/08 00:42:43;;;;;;;13.85;3.95;;;;;;;20.61;34.19;97720.81;5135821;27;20054;-64
2022/04/08 00:45:09;;;;;;;12.70;4.82;;;;;;;20.65;33.98;97713.94;5135255;27;20057;-64
2022/04/08 00:47:37;;;;;;;8.30;3.97;;;;;;;20.71;33.97;97715.72;5136981;27;20519;-64
2022/04/08 00:50:04;;;;;;;3.97;3.33;;;;;;;20.75;34.25;97714.22;5135369;27;20132;-64
2022/04/08 00:52:34;;;;;;;7.85;3.22;;;;;;;20.80;33.92;97719.72;5134667;27;20039;-64
2022/04/08 00:55:05;;;;;;;4.82;3.40;;;;;;;20.85;34.07;97719.03;5135845;27;20042;-63
2022/04/08 00:57:31;;;;;;;7.15;3.20;;;;;;;20.87;33.98;97717.75;5134485;27;20034;-63
2022/04/08 00:59:58;;;;;;;5.93;3.08;;;;;;;20.94;33.96;97716.81;5134950;27;20409;-64
2022/04/08 01:02:25;;;;;;;4.55;2.90;;;;;;;20.97;34.08;97719.84;5134843;27;20031;-63
2022/04/08 01:04:50;;;;;;;11.07;3.17;;;;;;;20.98;33.84;97718.78;5135349;27;20106;-63
2022/04/08 01:07:16;;;;;;;5.82;2.63;;;;;;;21.02;33.81;97711.91;5134912;27;20039;-64
2022/04/08 01:09:42;;;;;;;3.90;2.78;;;;;;;21.03;33.57;97710.84;5134423;27;20042;-64
2022/04/08 01:12:08;;;;;;;7.50;3.05;;;;;;;21.06;33.81;97719.50;5135189;27;20035;-64
2022/04/08 01:14:33;;;;;;;4.47;2.85;;;;;;;21.10;33.40;97723.38;5134316;27;20508;-65
2022/04/08 01:16:59;;;;;;;3.85;3.00;;;;;;;21.09;33.46;97721.75;5135260;27;20038;-65
2022/04/08 01:19:24;;;;;;;6.75;3.88;;;;;;;21.10;33.29;97699.97;5134879;27;20031;-65
2022/04/08 01:21:50;;;;;;;4.18;3.78;;;;;;;21.13;33.03;97712.97;5134970;27;20533;-64
2022/04/08 01:24:16;;;;;;;6.38;3.53;;;;;;;21.12;32.81;97713.19;5134578;27;20113;-65
2022/04/08 01:26:42;;;;;;;4.75;3.47;;;;;;;21.15;32.71;97712.72;5135358;27;20083;-63
2022/04/08 01:29:08;;;;;;;5.25;3.03;;;;;;;21.15;32.78;97712.72;5134456;27;20130;-64
2022/04/08 01:31:33;;;;;;;4.40;3.70;;;;;;;21.16;32.40;97700.91;5134563;27;20026;-64
2022/04/08 01:33:59;;;;;;;3.95;3.25;;;;;;;21.17;32.31;97706.06;5134635;27;20031;-63
2022/04/08 01:36:25;;;;;;;5.45;3.42;;;;;;;21.17;32.19;97714.13;5134938;27;20033;-65
2022/04/08 01:38:50;;;;;;;4.45;3.45;;;;;;;21.18;32.31;97713.06;5133996;27;20034;-65
2022/04/08 01:41:16;;;;;;;3.88;3.53;;;;;;;21.18;32.05;97707.69;5134358;27;20031;-64
2022/04/08 01:43:43;;;;;;;5.55;3.50;;;;;;;21.22;32.10;97717.97;5134108;27;20027;-65
2022/04/08 01:46:08;;;;;;;4.43;3.17;;;;;;;21.21;32.14;97709.09;5134748;27;20041;-64
2022/04/08 01:48:34;;;;;;;4.30;3.13;;;;;;;21.22;31.94;97713.44;5133922;27;20398;-64
2022/04/08 01:51:00;;;;;;;4.78;3.60;;;;;;;21.23;31.88;97711.53;5134451;27;20092;-66
2022/04/08 01:53:25;;;;;;;4.13;3.45;;;;;;;21.23;31.99;97709.69;5134565;27;20031;-65
2022/04/08 01:55:51;;;;;;;5.43;3.47;;;;;;;21.23;31.83;97715.06;5134579;27;20031;-64
2022/04/08 01:58:16;;;;;;;5.03;2.90;;;;;;;21.25;31.86;97721.00;5133501;27;20027;-64
2022/04/08 02:00:41;;;;;;;6.38;3.20;;;;;;;21.27;31.88;97712.72;5134335;27;20062;-65
2022/04/08 02:03:07;;;;;;;6.05;3.22;;;;;;;21.25;31.59;97707.56;5133939;27;20039;-65
2022/04/08 02:05:33;;;;;;;4.40;3.45;;;;;;;21.28;31.72;97711.66;5134378;27;20027;-65
2022/04/08 02:07:58;;;;;;;3.55;2.83;;;;;;;21.28;31.63;97712.47;5134011;27;20031;-65
2022/04/08 02:10:25;;;;;;;4.45;2.85;;;;;;;21.27;31.69;97716.22;5134177;27;20023;-65
2022/04/08 02:12:51;;;;;;;5.30;3.40;;;;;;;21.28;31.70;97715.16;5133597;27;20035;-65
2022/04/08 02:15:22;;;;;;;4.60;3.08;;;;;;;21.30;31.51;97720.31;5133932;27;20043;-64
2022/04/08 02:17:48;;;;;;;4.72;2.70;;;;;;;21.30;31.39;97720.31;5133775;27;20034;-64
2022/04/08 02:20:13;;;;;;;5.30;3.33;;;;;;;21.29;31.63;97721.38;5133169;27;20039;-65
2022/04/08 02:22:39;;;;;;;3.85;3.20;;;;;;;21.31;31.33;97727.34;5133972;27;20465;-66
2022/04/08 02:25:05;;;;;;;5.53;2.60;;;;;;;21.30;31.34;97721.13;5133775;27;20035;-64
2022/04/08 02:27:32;;;;;;;4.15;3.10;;;;;;;21.31;31.41;97722.78;5132774;27;20069;-65
2022/04/08 02:29:59;;;;;;;3.80;3.40;;;;;;;21.33;31.39;97717.13;5133780;27;20130;-65
2022/04/08 02:32:25;;;;;;;5.15;3.45;;;;;;;21.31;31.39;97714.69;5133078;27;20027;-65
2022/04/08 02:34:51;;;;;;;3.88;2.65;;;;;;;21.31;31.57;97719.28;5132950;27;20047;-65
2022/04/08 02:37:17;;;;;;;4.57;2.72;;;;;;;21.34;31.37;97726.84;5133780;27;20034;-65
2022/04/08 02:39:43;;;;;;;6.15;2.33;;;;;;;21.32;31.16;97715.53;5134128;27;20393;-65
2022/04/08 02:42:09;;;;;;;3.97;2.55;;;;;;;21.34;31.28;97711.53;5133813;27;20114;-64
2022/04/08 02:44:34;;;;;;;4.03;3.08;;;;;;;21.34;31.04;97727.69;5133458;27;20075;-64
2022/04/08 02:47:00;;;;;;;4.22;3.13;;;;;;;21.35;31.23;97712.34;5133855;27;20035;-64
2022/04/08 02:49:25;;;;;;;6.55;2.88;;;;;;;21.36;31.08;97716.69;5133907;27;20370;-65
2022/04/08 02:51:51;;;;;;;10.00;2.97;;;;;;;21.38;30.91;97713.78;5133241;28;20126;-65
2022/04/08 02:54:17;;;;;;;6.40;3.00;;;;;;;21.38;31.15;97717.25;5132959;27;20062;-64
2022/04/08 02:56:42;;;;;;;3.97;2.75;;;;;;;21.38;31.04;97721.84;5133671;28;20035;-66
2022/04/08 02:59:08;;;;;;;4.97;3.33;;;;;;;21.40;30.77;97725.91;5133206;27;20031;-65
2022/04/08 03:01:34;;;;;;;4.88;2.75;;;;;;;21.40;31.01;97730.47;5133436;28;20023;-66
2022/04/08 03:04:00;;;;;;;3.00;2.67;;;;;;;21.41;31.01;97715.97;5132716;28;20409;-65
2022/04/08 03:06:26;;;;;;;3.55;2.65;;;;;;;21.41;30.85;97721.34;5133139;28;20083;-65
2022/04/08 03:08:52;;;;;;;3.65;2.70;;;;;;;21.41;30.80;97716.78;5133052;28;20080;-69
2022/04/08 03:11:18;;;;;;;6.43;3.35;;;;;;;21.43;30.89;97730.84;5133052;28;20027;-65
2022/04/08 03:13:44;;;;;;;6.22;2.95;;;;;;;21.44;30.93;97732.47;5132822;27;20027;-65
2022/04/08 03:16:09;;;;;;;3.78;2.78;;;;;;;21.46;30.86;97735.75;5133220;27;20026;-66
2022/04/08 03:18:36;;;;;;;8.23;3.50;;;;;;;21.47;30.92;97726.59;5133021;27;20110;-66
2022/04/08 03:21:01;;;;;;;4.50;3.63;;;;;;;21.49;30.62;97729.06;5132946;28;20026;-65
2022/04/08 03:23:27;;;;;;;3.97;2.78;;;;;;;21.52;30.66;97738.53;5132971;27;20027;-66
2022/04/08 03:25:52;;;;;;;5.10;2.58;;;;;;;21.53;30.77;97729.41;5133282;28;20399;-66
2022/04/08 03:28:18;;;;;;;3.97;2.92;;;;;;;21.55;30.71;97738.88;5132716;27;20035;-65
2022/04/08 03:30:43;;;;;;;5.85;3.20;;;;;;;21.55;30.67;97733.50;5132748;27;20045;-66
2022/04/08 03:33:09;;;;;;;5.90;2.80;;;;;;;21.57;30.57;97734.06;5133085;27;20616;-66
2022/04/08 03:35:34;;;;;;;4.43;3.10;;;;;;;21.58;30.74;97727.63;5133404;28;20058;-66
2022/04/08 03:38:00;;;;;;;4.85;2.42;;;;;;;21.61;30.69;97723.72;5133502;27;20162;-65
2022/04/08 03:40:26;;;;;;;3.97;2.83;;;;;;;21.62;30.67;97734.22;5137520;27;20059;-65
2022/04/08 03:42:51;;;;;;;3.70;2.50;;;;;;;21.65;30.71;97722.16;5136921;27;20474;-67
2022/04/08 03:45:17;;;;;;;3.30;2.80;;;;;;;21.68;30.61;97726.25;5136454;27;20119;-66
2022/04/08 03:47:42;;;;;;;4.18;2.70;;;;;;;21.70;30.32;97737.59;5136526;27;20035;-64
2022/04/08 03:50:08;;;;;;;5.15;3.08;;;;;;;21.72;30.49;97738.16;5136853;27;20432;-66
2022/04/08 03:52:34;;;;;;;4.07;2.55;;;;;;;21.75;30.55;97743.09;5135917;27;20103;-66
2022/04/08 03:55:01;;;;;;;3.85;2.58;;;;;;;21.79;30.49;97741.56;5136893;27;20055;-65
2022/04/08 03:57:28;;;;;;;5.25;3.10;;;;;;;21.83;30.56;97742.72;5137137;27;20107;-66
2022/04/08 03:59:54;;;;;;;4.10;2.70;;;;;;;21.84;30.29;97740.84;5136567;27;20027;-67
2022/04/08 04:02:20;;;;;;;4.32;2.85;;;;;;;21.87;30.39;97735.78;5136697;27;20023;-67
2022/04/08 04:04:46;;;;;;;4.88;2.60;;;;;;;21.91;30.46;97746.94;5135893;27;20019;-66
2022/04/08 04:07:11;;;;;;;4.63;2.72;;;;;;;21.94;30.36;97746.41;5136234;27;20055;-67
2022/04/08 04:09:37;;;;;;;3.60;2.53;;;;;;;21.98;30.37;97750.28;5136181;27;20085;-65
2022/04/08 04:12:03;;;;;;;4.93;2.72;;;;;;;22.02;30.40;97754.13;5136292;27;20031;-67
2022/04/08 04:14:29;;;;;;;3.97;3.25;;;;;;;22.05;30.18;97750.16;5135989;27;20027;-67
2022/04/08 04:16:54;;;;;;;4.72;2.90;;;;;;;22.07;30.13;97745.34;5136610;27;20031;-66
2022/04/08 04:19:20;;;;;;;3.95;2.63;;;;;;;22.07;30.14;97751.53;5135764;27;20034;-67
2022/04/08 04:21:47;;;;;;;3.15;2.63;;;;;;;22.12;30.11;97755.38;5135599;27;20122;-67
2022/04/08 04:24:14;;;;;;;3.35;2.38;;;;;;;22.11;30.24;97746.50;5135994;27;20042;-66
2022/04/08 04:26:39;;;;;;;4.10;2.50;;;;;;;22.14;30.28;97758.66;5136315;27;20034;-66
2022/04/08 04:29:05;;;;;;;2.65;1.67;;;;;;;22.15;30.59;97753.03;5135441;27;20410;-66
2022/04/08 04:31:30;;;;;;;3.67;2.17;;;;;;;22.17;30.60;97750.91;5136074;27;20031;-65
2022/04/08 04:33:56;;;;;;;3.70;2.55;;;;;;;22.19;30.60;97756.88;5136135;27;20038;-65
2022/04/08 04:36:21;;;;;;;2.90;1.80;;;;;;;22.18;30.83;97740.97;5135638;27;20031;-66
2022/04/08 04:38:47;;;;;;;2.45;1.90;;;;;;;22.23;30.66;97749.97;5135543;27;20046;-66
2022/04/08 04:41:12;;;;;;;3.88;2.38;;;;;;;22.24;30.43;97765.06;5135716;27;20027;-65
2022/04/08 04:43:38;;;;;;;4.40;2.63;;;;;;;22.25;30.52;97749.72;5135677;27;20034;-66
2022/04/08 04:46:03;;;;;;;2.63;1.73;;;;;;;22.26;30.68;97756.72;5136146;27;20050;-66
2022/04/08 04:48:30;;;;;;;2.50;1.90;;;;;;;22.28;30.56;97756.50;5135226;27;20031;-65
2022/04/08 04:50:56;;;;;;;4.93;2.80;;;;;;;22.29;30.46;97758.97;5135147;27;20485;-66
2022/04/08 04:53:22;;;;;;;3.08;2.22;;;;;;;22.29;30.49;97750.03;5135276;27;20039;-66
2022/04/08 04:55:48;;;;;;;2.70;1.80;;;;;;;22.30;30.43;97757.06;5135576;27;20083;-66
2022/04/08 04:58:13;;;;;;;3.28;2.15;;;;;;;22.29;30.42;97756.25;5116709;27;20035;-65
2022/04/08 05:00:39;;;;;;;2.17;1.92;;;;;;;22.33;30.44;97746.66;5135811;27;20035;-66
2022/04/08 05:03:06;;;;;;;2.83;2.20;;;;;;;22.34;30.53;97750.97;5135538;27;20056;-66
2022/04/08 05:05:31;;;;;;;3.20;2.58;;;;;;;22.38;30.46;97760.19;5135142;27;20057;-65
2022/04/08 05:08:04;;;;;;;3.90;2.42;;;;;;;22.42;30.44;97749.81;5134556;27;20166;-66
2022/04/08 05:10:31;;;;;;;3.25;2.20;;;;;;;22.46;30.32;97759.00;5135230;27;20062;-66
2022/04/08 05:12:59;;;;;;;3.95;1.92;;;;;;;22.51;30.25;97758.28;5135155;27;20035;-65
2022/04/08 05:15:26;;;;;;;4.38;2.45;;;;;;;22.58;30.28;97758.13;5135219;27;20397;-65
2022/04/08 05:17:52;;;;;;;3.30;2.15;;;;;;;22.62;30.12;97753.91;5134179;27;20023;-65
2022/04/08 05:20:17;;;;;;;2.63;2.03;;;;;;;22.69;29.91;97758.06;5135292;27;20046;-65
2022/04/08 05:22:43;;;;;;;3.65;2.63;;;;;;;22.80;29.70;97750.97;5134813;27;20058;-65
2022/04/08 05:25:09;;;;;;;4.18;2.60;;;;;;;22.91;29.63;97751.13;5116453;27;20031;-65
2022/04/08 05:27:39;;;;;;;3.40;2.63;;;;;;;23.02;29.59;97753.75;5134255;27;20102;-65
2022/04/08 05:30:06;;;;;;;4.72;2.53;;;;;;;23.10;29.57;97735.50;5133637;27;20031;-65
2022/04/08 05:32:32;;;;;;;4.13;2.85;;;;;;;23.17;29.55;97749.66;5134053;27;20056;-65
2022/04/08 05:34:57;;;;;;;4.20;2.50;;;;;;;23.30;29.23;97754.75;5134591;27;20111;-66
2022/04/08 05:37:23;;;;;;;5.40;2.58;;;;;;;23.49;29.30;97746.38;5134472;27;20037;-65
2022/04/08 05:39:48;;;;;;;4.13;2.42;;;;;;;23.67;28.84;97744.44;5134682;27;20487;-65
2022/04/08 05:42:13;;;;;;;6.25;2.97;;;;;;;23.75;28.74;97747.50;5134594;27;20075;-64
2022/04/08 05:44:39;;;;;;;3.88;2.33;;;;;;;23.73;29.04;97744.25;5133907;27;20375;-64
2022/04/08 05:47:05;;;;;;;4.20;2.47;;;;;;;23.68;29.04;97744.19;5134665;27;20046;-65
2022/04/08 05:49:30;;;;;;;4.75;2.72;;;;;;;23.64;29.12;97742.25;5134032;27;20046;-66
2022/04/08 05:51:56;;;;;;;2.42;2.03;;;;;;;23.62;29.41;97751.41;5134917;27;20051;-65
2022/04/08 05:54:21;;;;;;;5.07;2.47;;;;;;;23.61;29.21;97741.66;5134233;27;20030;-65
2022/04/08 05:56:47;;;;;;;5.97;2.85;;;;;;;23.62;29.46;97740.59;5134899;27;20035;-66
2022/04/08 05:59:12;;;;;;;4.78;2.72;;;;;;;23.64;29.25;97734.94;5112020;28;20126;-65
2022/04/08 06:01:38;;;;;;;4.63;2.85;;;;;;;23.64;29.50;97737.63;5113673;28;20391;-65
2022/04/08 06:04:03;;;;;;;3.88;2.50;;;;;;;23.66;29.20;97737.41;5126002;27;20034;-66
2022/04/08 06:06:29;;;;;;;4.32;2.20;;;;;;;23.69;29.12;97740.41;5134066;27;20046;-65
2022/04/08 06:08:54;;;;;;;4.57;2.45;;;;;;;23.72;29.29;97745.31;5133549;27;20043;-65
2022/04/08 06:11:20;;;;;;;6.30;2.65;;;;;;;23.75;29.34;97744.00;5134262;27;20035;-66
2022/04/08 06:13:45;;;;;;;8.57;2.17;;;;;;;23.76;29.21;97738.34;5133475;27;20447;-66
2022/04/08 06:16:11;;;;;;;3.35;2.35;;;;;;;23.81;29.16;97747.56;5134232;27;20031;-64
2022/04/08 06:18:36;;;;;;;4.55;2.53;;;;;;;23.82;29.28;97730.31;5133754;27;20038;-66
2022/04/08 06:21:04;;;;;;;2.92;1.60;;;;;;;23.87;29.24;97744.69;5133963;27;20066;-65
2022/04/08 06:23:29;;;;;;;5.80;2.92;;;;;;;23.89;28.97;97744.44;5133685;27;20038;-66
2022/04/08 06:25:55;;;;;;;4.50;2.85;;;;;;;23.91;29.34;97747.69;5134023;27;20031;-66
2022/04/08 06:28:20;;;;;;;6.13;3.03;;;;;;;23.93;29.33;97748.25;5133470;27;20031;-66
2022/04/08 06:30:46;;;;;;;4.20;2.58;;;;;;;23.94;29.23;97747.19;5133513;27;20410;-66
2022/04/08 06:33:11;;;;;;;4.82;3.22;;;;;;;23.95;28.96;97748.81;5132965;27;20107;-66
2022/04/08 06:35:37;;;;;;;3.00;2.00;;;;;;;23.96;29.08;97749.66;5133654;27;20030;-66
2022/04/08 06:38:05;;;;;;;10.95;3.38;;;;;;;23.98;29.06;97745.66;5133823;27;20050;-63
2022/04/08 06:40:32;;;;;;;4.00;2.35;;;;;;;24.01;28.91;97747.03;5115720;27;20035;-65
2022/04/08 06:43:00;;;;;;;3.78;2.15;;;;;;;24.05;29.13;97750.88;5133219;27;20039;-66
2022/04/08 06:45:26;;;;;;;3.85;2.00;;;;;;;24.06;28.76;97753.31;5133066;27;20058;-65
2022/04/08 06:47:52;;;;;;;3.55;2.17;;;;;;;24.11;28.87;97749.03;5132653;27;20075;-65
2022/04/08 06:50:19;;;;;;;6.63;2.97;;;;;;;24.11;28.66;97751.72;5132977;27;20031;-66
2022/04/08 06:52:45;;;;;;;4.40;2.53;;;;;;;24.11;28.87;97749.88;5133045;27;20047;-66
2022/04/08 06:55:11;;;;;;;3.85;2.40;;;;;;;24.14;28.60;97759.34;5133584;28;20039;-66
2022/04/08 06:57:37;;;;;;;3.90;2.95;;;;;;;24.10;29.01;97747.41;5133551;28;20393;-65
2022/04/08 07:00:08;;;;;;;4.20;3.20;;;;;;;24.14;28.38;97751.22;5133166;27;20039;-65
2022/04/08 07:02:34;;;;;;;6.13;1.90;;;;;;;24.14;28.31;97759.34;5115187;27;20031;-66
2022/04/08 07:04:59;;;;;;;3.88;2.45;;;;;;;24.08;28.41;97745.75;5131186;27;20381;-66
2022/04/08 07:07:32;;;;;;;5.55;3.10;;;;;;;24.15;28.48;97752.88;5133189;27;20059;-65
2022/04/08 07:09:57;;;;;;;3.22;2.45;;;;;;;24.17;28.50;97756.13;5133775;28;20110;-66
2022/04/08 07:12:27;;;;;;;4.47;2.95;;;;;;;24.16;28.76;97762.59;5133427;27;20149;-66
2022/04/08 07:14:53;;;;;;;6.15;3.08;;;;;;;24.17;28.44;97756.13;5136882;27;20031;-66
2022/04/08 07:17:30;;;;;;;6.43;3.05;;;;;;;24.19;28.16;97757.50;5119674;27;20076;-66
2022/04/08 07:19:56;;;;;;;3.90;2.80;;;;;;;24.19;28.56;97762.91;5137534;27;20433;-65
2022/04/08 07:22:22;;;;;;;6.05;3.38;;;;;;;24.20;28.48;97755.59;5136841;27;20035;-65
2022/04/08 07:24:49;;;;;;;4.43;3.17;;;;;;;24.20;28.52;97761.84;5136427;27;20036;-66
2022/04/08 07:27:14;;;;;;;4.00;2.63;;;;;;;24.16;28.41;97758.00;5136376;27;20034;-64
2022/04/08 07:29:40;;;;;;;3.85;2.70;;;;;;;24.22;28.50;97765.13;5137234;27;20043;-66
2022/04/08 07:32:06;;;;;;;4.25;2.90;;;;;;;24.24;28.51;97762.16;5137150;27;20031;-65
2022/04/08 07:34:31;;;;;;;4.75;3.20;;;;;;;24.25;28.26;97763.78;5136547;27;20474;-65
2022/04/08 07:36:56;;;;;;;4.50;2.80;;;;;;;24.25;28.21;97762.97;5137256;27;20058;-65
2022/04/08 07:39:22;;;;;;;6.28;3.50;;;;;;;24.27;28.48;97758.94;5118667;27;20047;-65
2022/04/08 07:41:47;;;;;;;6.82;2.60;;;;;;;24.28;28.31;97770.56;5137248;27;20031;-66
2022/04/08 07:44:13;;;;;;;4.55;3.17;;;;;;;24.29;28.50;97750.56;5136861;27;20039;-67
2022/04/08 07:46:39;;;;;;;5.10;3.03;;;;;;;24.31;28.22;97770.06;5137679;27;20084;-66
2022/04/08 07:49:04;;;;;;;4.80;3.03;;;;;;;24.32;28.17;97766.28;5136871;27;20031;-66
2022/04/08 07:51:30;;;;;;;5.45;2.58;;;;;;;24.35;28.03;97766.59;5136730;27;20487;-66
2022/04/08 07:53:55;;;;;;;6.63;3.15;;;;;;;24.35;28.02;97758.47;5136238;27;20027;-65
2022/04/08 07:56:21;;;;;;;7.72;3.58;;;;;;;24.37;28.04;97753.63;5136959;27;20042;-67
2022/04/08 07:58:48;;;;;;;3.90;2.33;;;;;;;24.40;27.87;97763.13;5136338;27;20516;-67
2022/04/08 08:01:13;;;;;;;6.65;3.13;;;;;;;24.41;28.00;97753.13;5118033;27;20031;-67
2022/04/08 08:03:40;;;;;;;5.75;3.58;;;;;;;24.43;27.97;97756.41;5136442;27;20037;-67
2022/04/08 08:06:05;;;;;;;3.78;2.70;;;;;;;24.42;27.76;97746.66;5136002;27;20035;-66
2022/04/08 08:08:31;;;;;;;5.57;2.70;;;;;;;24.45;28.04;97759.66;5136811;27;20047;-65
2022/04/08 08:10:56;;;;;;;3.58;2.40;;;;;;;24.45;28.11;97754.25;5136419;27;20034;-65
2022/04/08 08:13:22;;;;;;;4.28;2.78;;;;;;;24.47;27.92;97760.22;5135755;27;20031;-65
2022/04/08 08:15:48;;;;;;;3.80;2.33;;;;;;;24.50;27.97;97765.09;5136053;27;20034;-66
2022/04/08 08:18:13;;;;;;;3.45;2.63;;;;;;;24.52;28.16;97757.56;5136067;27;20038;-66
2022/04/08 08:20:39;;;;;;;3.72;2.20;;;;;;;24.53;27.91;97762.72;5136409;27;20035;-65
2022/04/08 08:23:06;;;;;;;4.25;3.17;;;;;;;24.54;27.83;97747.31;5135944;27;20492;-65
2022/04/08 08:25:32;;;;;;;4.28;2.88;;;;;;;24.56;27.62;97750.56;5135553;27;20156;-65
2022/04/08 08:28:01;;;;;;;6.05;2.92;;;;;;;24.55;27.84;97743.53;5135569;27;20121;-66
2022/04/08 08:30:29;;;;;;;6.30;2.97;;;;;;;24.53;27.50;97741.09;5136047;27;20394;-65
2022/04/08 08:32:56;;;;;;;5.90;2.92;;;;;;;24.53;27.38;97740.25;5111294;28;20406;-66
2022/04/08 08:35:21;;;;;;;6.38;3.08;;;;;;;24.54;27.50;97733.78;5115563;28;20046;-65
2022/04/08 08:37:49;;;;;;;5.07;2.65;;;;;;;24.56;27.23;97739.75;5115735;27;20035;-64
2022/04/08 08:40:16;;;;;;;7.63;2.85;;;;;;;24.58;27.58;97747.59;5136058;27;20042;-65
2022/04/08 08:42:42;;;;;;;5.47;3.60;;;;;;;24.59;27.51;97738.41;5135645;27;20027;-64
2022/04/08 08:45:11;;;;;;;4.63;3.35;;;;;;;24.60;27.30;97734.66;5136054;27;20034;-65
2022/04/08 08:47:36;;;;;;;4.82;3.15;;;;;;;24.61;27.01;97741.69;5135964;27;20038;-64
2022/04/08 08:50:09;;;;;;;7.88;3.58;;;;;;;24.61;27.40;97723.59;5135672;27;20456;-65
2022/04/08 08:52:35;;;;;;;5.28;3.17;;;;;;;24.62;27.27;97727.94;5134443;27;20050;-65
2022/04/08 08:55:04;;;;;;;4.35;3.20;;;;;;;24.64;27.34;97730.38;5135938;27;20042;-65
2022/04/08 08:57:30;;;;;;;4.38;3.30;;;;;;;24.60;26.87;97724.66;5135490;27;20107;-64
2022/04/08 09:00:15;;;;;;;5.93;3.78;;;;;;;24.67;26.85;97730.66;5135178;27;20114;-64
2022/04/08 09:02:45;;;;;;;5.15;3.45;;;;;;;24.66;26.99;97725.53;5135623;27;20055;-65
2022/04/08 09:05:21;;;;;;;6.32;2.88;;;;;;;24.68;26.88;97720.69;5133950;27;20092;-64
2022/04/08 09:08:00;;;;;;;8.45;4.40;;;;;;;24.68;26.83;97710.66;5134391;27;20428;-66
2022/04/08 09:10:37;;;;;;;14.60;4.97;;;;;;;24.57;26.72;97716.22;5133563;27;20373;-67
2022/04/08 09:13:07;;;;;;;10.63;5.25;;;;;;;24.45;26.76;97711.81;5131951;27;20027;-66
2022/04/08 09:15:42;;;;;;;6.25;4.63;;;;;;;24.33;26.40;97701.19;5134970;27;20031;-61
2022/04/08 09:18:13;;;;;;;6.43;4.22;;;;;;;24.23;27.16;97709.16;5134257;27;20039;-65
2022/04/08 09:20:44;;;;;;;10.02;4.85;;;;;;;24.14;27.35;97705.31;5109134;27;20038;-67
2022/04/08 09:23:10;;;;;;;;;;;;;;;24.02;27.41;97705.44;5135412;27;20053;-69
2022/04/08 09:25:35;;;;;;;9.43;4.82;;;;;;;23.92;27.48;97689.91;5135015;27;20282;-66
2022/04/08 09:28:09;;;;;;;7.97;4.70;;;;;;;23.88;27.55;97688.78;5115917;27;20031;-66
2022/04/08 09:30:35;;;;;;;6.85;5.28;;;;;;;23.82;27.47;97708.69;5134478;27;20023;-69
2022/04/08 09:33:19;;;;;;;9.20;4.95;;;;;;;23.76;27.44;97702.44;5133739;27;20137;-66
2022/04/08 09:35:45;;;;;;;10.05;4.78;;;;;;;23.68;27.88;97687.47;5132902;27;20045;-66
2022/04/08 09:38:10;;;;;;;7.97;4.80;;;;;;;23.65;27.93;97693.38;5128659;27;20444;-65
2022/04/08 09:40:40;;;;;;;6.30;4.47;;;;;;;23.62;27.88;97688.47;5120254;27;20031;-64
2022/04/08 09:43:06;;;;;;;7.50;4.68;;;;;;;23.60;27.59;97690.63;5119927;27;20130;-66
2022/04/08 09:45:33;;;;;;;7.57;4.63;;;;;;;23.57;27.56;97686.53;5132452;27;20484;-66
2022/04/08 09:48:02;;;;;;;10.15;5.57;;;;;;;23.52;27.61;97689.19;5134138;27;20031;-67
2022/04/08 09:50:28;;;;;;;6.57;5.28;;;;;;;23.47;27.63;97692.63;5134257;27;20075;-66
2022/04/08 09:52:54;;;;;;;6.95;4.45;;;;;;;23.43;27.46;97696.91;5133414;27;20552;-67
2022/04/08 09:55:22;;;;;;;8.30;5.07;;;;;;;23.41;27.36;97693.63;5133792;27;20606;-66
2022/04/08 09:57:51;;;;;;;6.22;5.00;;;;;;;23.40;27.71;97692.00;5134531;27;20109;-66
2022/04/08 10:00:17;;;;;;;7.45;5.18;;;;;;;23.35;27.61;97683.81;5134430;27;20371;-66
2022/04/08 10:02:48;;;;;;;8.05;4.95;;;;;;;23.38;27.48;97691.44;5134113;27;20473;-65
2022/04/08 10:05:13;;;;;;;6.15;4.78;;;;;;;23.38;27.63;97687.94;5134154;27;20109;-65
2022/04/08 10:07:40;;;;;;;6.57;4.35;;;;;;;23.38;27.59;97687.94;5133654;27;20054;-65
2022/04/08 10:10:36;;;;;;;8.60;5.03;;;;;;;23.38;27.42;97682.53;5133840;27;20504;-65
2022/04/08 10:13:24;;;;;;;5.68;4.45;;;;;;;23.33;27.37;97685.97;5134282;27;20413;-66
2022/04/08 10:16:19;;;;;;;7.00;4.38;;;;;;;23.28;27.38;97686.72;5133870;27;20208;-65
2022/04/08 10:18:47;;;;;;;7.93;3.92;;;;;;;23.27;27.57;97689.66;5133391;27;20027;-66
2022/04/08 10:21:14;;;;;;;7.32;5.03;;;;;;;23.25;27.60;97684.50;5133426;27;20041;-65
2022/04/08 10:23:51;;;;;;;5.90;3.45;;;;;;;23.25;27.53;97683.69;5133728;27;20108;-66
2022/04/08 10:26:26;;;;;;;8.55;3.70;;;;;;;23.24;27.82;97663.19;5133830;27;20035;-65
2022/04/08 10:28:54;;;;;;;6.47;3.70;;;;;;;23.22;27.65;97663.44;5133043;27;20117;-65
2022/04/08 10:31:25;;;;;;;5.35;3.97;;;;;;;23.23;27.78;97675.03;5133703;27;20098;-65
2022/04/08 10:33:53;;;;;;;9.30;4.88;;;;;;;23.23;27.78;97670.47;5133626;27;20035;-67
2022/04/08 10:36:29;;;;;;;7.15;3.88;;;;;;;23.22;27.68;97674.22;5133937;27;20039;-65
2022/04/08 10:39:14;;;;;;;4.70;3.55;;;;;;;23.20;27.54;97673.66;5133449;27;20138;-64
2022/04/08 10:41:50;;;;;;;8.80;4.03;;;;;;;23.16;27.64;97667.91;5133639;27;20058;-64
2022/04/08 10:44:29;;;;;;;9.95;5.30;;;;;;;23.17;27.71;97663.34;5133524;27;20041;-65
2022/04/08 10:46:57;;;;;;;7.35;3.85;;;;;;;23.19;27.65;97657.66;5112841;28;20118;-64
2022/04/08 10:49:23;;;;;;;7.28;3.80;;;;;;;23.17;27.86;97664.13;5131331;27;20062;-66
2022/04/08 10:51:50;;;;;;;5.97;3.85;;;;;;;23.15;27.68;97652.81;5133297;27;20088;-64
2022/04/08 10:54:17;;;;;;;4.90;3.67;;;;;;;23.15;27.87;97651.97;5133334;28;20031;-65
2022/04/08 10:56:43;;;;;;;6.22;3.95;;;;;;;23.15;27.62;97657.38;5133397;28;20027;-65
2022/04/08 10:59:09;;;;;;;7.50;4.68;;;;;;;23.16;27.78;97648.22;5133435;27;20042;-65
2022/04/08 11:01:48;;;;;;;6.28;4.20;;;;;;;23.16;27.79;97656.31;5132806;27;20031;-65
2022/04/08 11:04:19;;;;;;;10.10;4.38;;;;;;;23.13;27.74;97644.13;5132475;27;20111;-66
2022/04/08 11:06:45;;;;;;;10.88;4.55;;;;;;;23.13;27.88;97649.53;5133690;27;20402;-65
2022/04/08 11:09:16;;;;;;;9.00;4.53;;;;;;;23.13;27.88;97664.88;5133475;27;20043;-65
2022/04/08 11:11:43;;;;;;;6.93;4.20;;;;;;;23.14;27.87;97653.03;5133643;28;20114;-65
2022/04/08 11:14:10;;;;;;;13.57;5.15;;;;;;;23.17;27.81;97647.94;5132767;27;20054;-64
2022/04/08 11:16:38;;;;;;;8.93;4.55;;;;;;;23.21;27.93;97640.22;5133300;27;20050;-65
2022/04/08 11:19:05;;;;;;;8.85;4.93;;;;;;;23.25;28.10;97640.53;5133074;28;20478;-66
2022/04/08 11:21:34;;;;;;;8.63;5.68;;;;;;;23.26;27.86;97634.06;5133378;28;20444;-66
2022/04/08 11:24:02;;;;;;;8.07;5.10;;;;;;;23.26;27.87;97645.66;5132563;27;20035;-64
2022/04/08 11:26:29;;;;;;;10.57;4.95;;;;;;;23.26;28.16;97644.88;5132792;27;20505;-65
2022/04/08 11:29:15;;;;;;;9.70;4.80;;;;;;;23.25;28.19;97624.34;5133210;27;20027;-66
2022/04/08 11:31:41;;;;;;;9.48;5.43;;;;;;;23.23;28.05;97634.56;5132720;28;20041;-66
2022/04/08 11:34:07;;;;;;;6.72;4.57;;;;;;;23.23;28.07;97642.66;5132791;27;20054;-64